sensor_id;sensor_type;location;lat;lon;timestamp;P1;durP1;ratioP1;P2;durP2;ratioP2
4555;SDS011;2290;48.674;9.018;2023-12-20T00:02:12;1.23;;;1.10;;
4555;SDS011;2290;48.674;9.018;2023-12-20T00:04:37;1.67;;;1.40;;
4555;SDS011;2290;48.674;9.018;2023-12-20T00:07:03;1.40;;;1.10;;
4555;SDS011;2290;48.674;9.018;2023-12-20T00:09:28;1.27;;;1.17;;
4555;SDS011;2290;48.674;9.018;2023-12-20T00:11:54;1.73;;;1.40;;
4555;SDS011;2290;48.674;9.018;2023-12-20T00:14:20;1.37;;;1.20;;
4555;SDS011;2290;48.674;9.018;2023-12-20T00:16:45;1.70;;;1.27;;
4555;SDS011;2290;48.674;9.018;2023-12-20T00:19:12;1.40;;;1.20;;
4555;SDS011;2290;48.674;9.018;2023-12-20T00:21:37;1.33;;;1.20;;
4555;SDS011;2290;48.674;9.018;2023-12-20T00:24:03;1.40;;;1.30;;
4555;SDS011;2290;48.674;9.018;2023-12-20T00:26:29;1.40;;;1.20;;
4555;SDS011;2290;48.674;9.018;2023-12-20T00:28:54;1.53;;;1.20;;
4555;SDS011;2290;48.674;9.018;2023-12-20T00:31:20;1.40;;;1.20;;
4555;SDS011;2290;48.674;9.018;2023-12-20T00:33:45;1.33;;;1.10;;
4555;SDS011;2290;48.674;9.018;2023-12-20T00:36:12;1.10;;;1.00;;
4555;SDS011;2290;48.674;9.018;2023-12-20T00:38:37;1.20;;;1.10;;
4555;SDS011;2290;48.674;9.018;2023-12-20T00:41:03;1.17;;;1.07;;
4555;SDS011;2290;48.674;9.018;2023-12-20T00:43:28;2.13;;;1.30;;
4555;SDS011;2290;48.674;9.018;2023-12-20T00:45:54;1.57;;;1.10;;
4555;SDS011;2290;48.674;9.018;2023-12-20T00:48:20;1.00;;;0.90;;
4555;SDS011;2290;48.674;9.018;2023-12-20T00:50:46;1.23;;;1.03;;
4555;SDS011;2290;48.674;9.018;2023-12-20T00:53:11;1.23;;;1.10;;
4555;SDS011;2290;48.674;9.018;2023-12-20T00:55:37;1.10;;;0.90;;
4555;SDS011;2290;48.674;9.018;2023-12-20T00:58:03;1.13;;;1.03;;
4555;SDS011;2290;48.674;9.018;2023-12-20T01:00:28;1.50;;;1.10;;
4555;SDS011;2290;48.674;9.018;2023-12-20T01:02:54;1.20;;;1.10;;
4555;SDS011;2290;48.674;9.018;2023-12-20T01:05:19;1.27;;;1.03;;
4555;SDS011;2290;48.674;9.018;2023-12-20T01:07:48;1.20;;;1.10;;
4555;SDS011;2290;48.674;9.018;2023-12-20T01:10:14;1.07;;;0.87;;
4555;SDS011;2290;48.674;9.018;2023-12-20T01:12:39;1.30;;;1.10;;
4555;SDS011;2290;48.674;9.018;2023-12-20T01:15:05;1.10;;;1.00;;
4555;SDS011;2290;48.674;9.018;2023-12-20T01:17:31;2.43;;;1.10;;
4555;SDS011;2290;48.674;9.018;2023-12-20T01:19:57;1.30;;;1.20;;
4555;SDS011;2290;48.674;9.018;2023-12-20T01:22:23;1.20;;;1.10;;
4555;SDS011;2290;48.674;9.018;2023-12-20T01:24:48;1.30;;;1.20;;
4555;SDS011;2290;48.674;9.018;2023-12-20T01:27:16;1.40;;;1.20;;
4555;SDS011;2290;48.674;9.018;2023-12-20T01:29:41;1.20;;;1.10;;
4555;SDS011;2290;48.674;9.018;2023-12-20T01:32:07;1.23;;;1.13;;
4555;SDS011;2290;48.674;9.018;2023-12-20T01:34:32;1.07;;;0.97;;
4555;SDS011;2290;48.674;9.018;2023-12-20T01:36:58;1.40;;;1.00;;
4555;SDS011;2290;48.674;9.018;2023-12-20T01:39:23;1.30;;;0.90;;
4555;SDS011;2290;48.674;9.018;2023-12-20T01:41:49;0.90;;;0.80;;
4555;SDS011;2290;48.674;9.018;2023-12-20T01:44:14;1.10;;;1.00;;
4555;SDS011;2290;48.674;9.018;2023-12-20T01:46:40;0.97;;;0.90;;
4555;SDS011;2290;48.674;9.018;2023-12-20T01:49:06;1.20;;;0.90;;
4555;SDS011;2290;48.674;9.018;2023-12-20T01:51:32;1.00;;;0.90;;
4555;SDS011;2290;48.674;9.018;2023-12-20T01:53:58;1.10;;;1.00;;
4555;SDS011;2290;48.674;9.018;2023-12-20T01:56:28;1.33;;;1.00;;
4555;SDS011;2290;48.674;9.018;2023-12-20T01:58:54;3.90;;;1.00;;
4555;SDS011;2290;48.674;9.018;2023-12-20T02:01:21;1.10;;;0.90;;
4555;SDS011;2290;48.674;9.018;2023-12-20T02:03:47;2.50;;;1.00;;
4555;SDS011;2290;48.674;9.018;2023-12-20T02:06:13;0.93;;;0.83;;
4555;SDS011;2290;48.674;9.018;2023-12-20T02:08:39;1.60;;;0.90;;
4555;SDS011;2290;48.674;9.018;2023-12-20T02:11:04;1.30;;;0.90;;
4555;SDS011;2290;48.674;9.018;2023-12-20T02:13:30;1.03;;;0.93;;
4555;SDS011;2290;48.674;9.018;2023-12-20T02:15:56;1.47;;;0.90;;
4555;SDS011;2290;48.674;9.018;2023-12-20T02:18:22;0.90;;;0.80;;
4555;SDS011;2290;48.674;9.018;2023-12-20T02:20:49;0.83;;;0.83;;
4555;SDS011;2290;48.674;9.018;2023-12-20T02:23:15;0.90;;;0.80;;
4555;SDS011;2290;48.674;9.018;2023-12-20T02:25:40;0.90;;;0.80;;
4555;SDS011;2290;48.674;9.018;2023-12-20T02:28:06;0.80;;;0.80;;
4555;SDS011;2290;48.674;9.018;2023-12-20T02:30:31;0.90;;;0.80;;
4555;SDS011;2290;48.674;9.018;2023-12-20T02:32:57;0.90;;;0.80;;
4555;SDS011;2290;48.674;9.018;2023-12-20T02:35:24;1.10;;;0.80;;
4555;SDS011;2290;48.674;9.018;2023-12-20T02:37:50;0.80;;;0.70;;
4555;SDS011;2290;48.674;9.018;2023-12-20T02:40:17;0.90;;;0.77;;
4555;SDS011;2290;48.674;9.018;2023-12-20T02:42:42;1.33;;;0.70;;
4555;SDS011;2290;48.674;9.018;2023-12-20T02:45:08;0.90;;;0.67;;
4555;SDS011;2290;48.674;9.018;2023-12-20T02:47:34;0.80;;;0.70;;
4555;SDS011;2290;48.674;9.018;2023-12-20T02:49:59;0.90;;;0.80;;
4555;SDS011;2290;48.674;9.018;2023-12-20T02:52:25;1.67;;;0.80;;
4555;SDS011;2290;48.674;9.018;2023-12-20T02:54:52;0.90;;;0.80;;
4555;SDS011;2290;48.674;9.018;2023-12-20T02:57:18;1.00;;;0.80;;
4555;SDS011;2290;48.674;9.018;2023-12-20T02:59:43;0.90;;;0.70;;
4555;SDS011;2290;48.674;9.018;2023-12-20T03:02:09;0.80;;;0.70;;
4555;SDS011;2290;48.674;9.018;2023-12-20T03:04:34;0.80;;;0.70;;
4555;SDS011;2290;48.674;9.018;2023-12-20T03:07:00;0.80;;;0.70;;
4555;SDS011;2290;48.674;9.018;2023-12-20T03:09:25;1.00;;;0.80;;
4555;SDS011;2290;48.674;9.018;2023-12-20T03:11:51;0.80;;;0.80;;
4555;SDS011;2290;48.674;9.018;2023-12-20T03:14:16;0.80;;;0.70;;
4555;SDS011;2290;48.674;9.018;2023-12-20T03:16:45;0.90;;;0.80;;
4555;SDS011;2290;48.674;9.018;2023-12-20T03:19:15;0.80;;;0.70;;
4555;SDS011;2290;48.674;9.018;2023-12-20T03:21:41;1.00;;;0.70;;
4555;SDS011;2290;48.674;9.018;2023-12-20T03:24:07;1.10;;;0.60;;
4555;SDS011;2290;48.674;9.018;2023-12-20T03:26:32;0.80;;;0.70;;
4555;SDS011;2290;48.674;9.018;2023-12-20T03:28:58;0.80;;;0.70;;
4555;SDS011;2290;48.674;9.018;2023-12-20T03:31:23;0.80;;;0.70;;
4555;SDS011;2290;48.674;9.018;2023-12-20T03:33:49;1.00;;;0.70;;
4555;SDS011;2290;48.674;9.018;2023-12-20T03:36:16;0.80;;;0.60;;
4555;SDS011;2290;48.674;9.018;2023-12-20T03:38:41;0.80;;;0.60;;
4555;SDS011;2290;48.674;9.018;2023-12-20T03:41:07;1.07;;;0.70;;
4555;SDS011;2290;48.674;9.018;2023-12-20T03:43:32;0.80;;;0.70;;
4555;SDS011;2290;48.674;9.018;2023-12-20T03:45:58;0.80;;;0.60;;
4555;SDS011;2290;48.674;9.018;2023-12-20T03:48:24;0.80;;;0.70;;
4555;SDS011;2290;48.674;9.018;2023-12-20T03:50:50;0.90;;;0.70;;
4555;SDS011;2290;48.674;9.018;2023-12-20T03:53:16;0.80;;;0.73;;
4555;SDS011;2290;48.674;9.018;2023-12-20T03:55:41;0.80;;;0.60;;
4555;SDS011;2290;48.674;9.018;2023-12-20T03:58:07;0.80;;;0.67;;
4555;SDS011;2290;48.674;9.018;2023-12-20T04:00:32;0.80;;;0.60;;
4555;SDS011;2290;48.674;9.018;2023-12-20T04:02:58;0.80;;;0.60;;
4555;SDS011;2290;48.674;9.018;2023-12-20T04:05:23;0.80;;;0.70;;
4555;SDS011;2290;48.674;9.018;2023-12-20T04:07:49;0.80;;;0.60;;
4555;SDS011;2290;48.674;9.018;2023-12-20T04:10:15;0.80;;;0.60;;
4555;SDS011;2290;48.674;9.018;2023-12-20T04:12:41;0.90;;;0.70;;
4555;SDS011;2290;48.674;9.018;2023-12-20T04:15:07;1.30;;;0.70;;
4555;SDS011;2290;48.674;9.018;2023-12-20T04:17:35;1.00;;;0.60;;
4555;SDS011;2290;48.674;9.018;2023-12-20T04:20:01;0.80;;;0.70;;
4555;SDS011;2290;48.674;9.018;2023-12-20T04:22:27;0.80;;;0.67;;
4555;SDS011;2290;48.674;9.018;2023-12-20T04:24:53;0.80;;;0.70;;
4555;SDS011;2290;48.674;9.018;2023-12-20T04:27:18;0.80;;;0.60;;
4555;SDS011;2290;48.674;9.018;2023-12-20T04:29:44;1.03;;;0.93;;
4555;SDS011;2290;48.674;9.018;2023-12-20T04:32:09;0.70;;;0.60;;
4555;SDS011;2290;48.674;9.018;2023-12-20T04:34:35;1.03;;;0.70;;
4555;SDS011;2290;48.674;9.018;2023-12-20T04:37:01;0.90;;;0.70;;
4555;SDS011;2290;48.674;9.018;2023-12-20T04:39:27;0.80;;;0.60;;
4555;SDS011;2290;48.674;9.018;2023-12-20T04:41:52;0.80;;;0.60;;
4555;SDS011;2290;48.674;9.018;2023-12-20T04:44:18;0.80;;;0.60;;
4555;SDS011;2290;48.674;9.018;2023-12-20T04:46:43;0.80;;;0.73;;
4555;SDS011;2290;48.674;9.018;2023-12-20T04:49:09;0.80;;;0.60;;
4555;SDS011;2290;48.674;9.018;2023-12-20T04:51:35;0.80;;;0.70;;
4555;SDS011;2290;48.674;9.018;2023-12-20T04:54:01;0.80;;;0.60;;
4555;SDS011;2290;48.674;9.018;2023-12-20T04:56:27;0.80;;;0.70;;
4555;SDS011;2290;48.674;9.018;2023-12-20T04:58:52;1.00;;;0.77;;
4555;SDS011;2290;48.674;9.018;2023-12-20T05:01:18;0.80;;;0.63;;
4555;SDS011;2290;48.674;9.018;2023-12-20T05:03:43;0.80;;;0.60;;
4555;SDS011;2290;48.674;9.018;2023-12-20T05:06:09;0.80;;;0.70;;
4555;SDS011;2290;48.674;9.018;2023-12-20T05:08:35;0.80;;;0.60;;
4555;SDS011;2290;48.674;9.018;2023-12-20T05:11:01;0.90;;;0.70;;
4555;SDS011;2290;48.674;9.018;2023-12-20T05:13:27;0.90;;;0.70;;
4555;SDS011;2290;48.674;9.018;2023-12-20T05:15:53;0.80;;;0.60;;
4555;SDS011;2290;48.674;9.018;2023-12-20T05:18:20;1.43;;;0.80;;
4555;SDS011;2290;48.674;9.018;2023-12-20T05:20:46;0.87;;;0.70;;
4555;SDS011;2290;48.674;9.018;2023-12-20T05:23:14;0.80;;;0.70;;
4555;SDS011;2290;48.674;9.018;2023-12-20T05:25:40;4.23;;;0.80;;
4555;SDS011;2290;48.674;9.018;2023-12-20T05:28:05;2.30;;;0.70;;
4555;SDS011;2290;48.674;9.018;2023-12-20T05:30:31;1.20;;;0.70;;
4555;SDS011;2290;48.674;9.018;2023-12-20T05:32:57;2.80;;;0.70;;
4555;SDS011;2290;48.674;9.018;2023-12-20T05:35:22;0.80;;;0.60;;
4555;SDS011;2290;48.674;9.018;2023-12-20T05:37:48;0.80;;;0.70;;
4555;SDS011;2290;48.674;9.018;2023-12-20T05:40:14;0.80;;;0.60;;
4555;SDS011;2290;48.674;9.018;2023-12-20T05:42:40;0.80;;;0.60;;
4555;SDS011;2290;48.674;9.018;2023-12-20T05:45:06;2.70;;;0.70;;
4555;SDS011;2290;48.674;9.018;2023-12-20T05:47:32;0.90;;;0.70;;
4555;SDS011;2290;48.674;9.018;2023-12-20T05:49:59;0.80;;;0.70;;
4555;SDS011;2290;48.674;9.018;2023-12-20T05:52:24;1.40;;;0.80;;
4555;SDS011;2290;48.674;9.018;2023-12-20T05:54:50;0.90;;;0.80;;
4555;SDS011;2290;48.674;9.018;2023-12-20T05:57:15;1.00;;;0.60;;
4555;SDS011;2290;48.674;9.018;2023-12-20T05:59:41;0.90;;;0.70;;
4555;SDS011;2290;48.674;9.018;2023-12-20T06:02:06;0.80;;;0.70;;
4555;SDS011;2290;48.674;9.018;2023-12-20T06:04:32;0.80;;;0.63;;
4555;SDS011;2290;48.674;9.018;2023-12-20T06:06:57;0.90;;;0.70;;
4555;SDS011;2290;48.674;9.018;2023-12-20T06:09:24;0.80;;;0.70;;
4555;SDS011;2290;48.674;9.018;2023-12-20T06:11:51;1.10;;;0.70;;
4555;SDS011;2290;48.674;9.018;2023-12-20T06:14:17;1.10;;;0.90;;
4555;SDS011;2290;48.674;9.018;2023-12-20T06:16:42;0.93;;;0.83;;
4555;SDS011;2290;48.674;9.018;2023-12-20T06:19:08;1.57;;;1.03;;
4555;SDS011;2290;48.674;9.018;2023-12-20T06:21:33;1.20;;;1.10;;
4555;SDS011;2290;48.674;9.018;2023-12-20T06:23:59;1.00;;;0.90;;
4555;SDS011;2290;48.674;9.018;2023-12-20T06:26:25;1.13;;;1.00;;
4555;SDS011;2290;48.674;9.018;2023-12-20T06:28:50;1.97;;;0.90;;
4555;SDS011;2290;48.674;9.018;2023-12-20T06:31:16;0.90;;;0.80;;
4555;SDS011;2290;48.674;9.018;2023-12-20T06:33:43;0.93;;;0.83;;
4555;SDS011;2290;48.674;9.018;2023-12-20T06:36:13;1.10;;;0.80;;
4555;SDS011;2290;48.674;9.018;2023-12-20T06:38:39;0.90;;;0.80;;
4555;SDS011;2290;48.674;9.018;2023-12-20T06:41:05;0.97;;;0.87;;
4555;SDS011;2290;48.674;9.018;2023-12-20T06:43:33;0.90;;;0.80;;
4555;SDS011;2290;48.674;9.018;2023-12-20T06:46:00;1.20;;;1.10;;
4555;SDS011;2290;48.674;9.018;2023-12-20T06:48:26;1.40;;;0.90;;
4555;SDS011;2290;48.674;9.018;2023-12-20T06:50:51;1.00;;;0.80;;
4555;SDS011;2290;48.674;9.018;2023-12-20T06:53:17;1.00;;;0.90;;
4555;SDS011;2290;48.674;9.018;2023-12-20T06:55:43;1.00;;;0.90;;
4555;SDS011;2290;48.674;9.018;2023-12-20T06:58:08;1.20;;;0.80;;
4555;SDS011;2290;48.674;9.018;2023-12-20T07:00:35;0.80;;;0.80;;
4555;SDS011;2290;48.674;9.018;2023-12-20T07:03:02;1.20;;;0.80;;
4555;SDS011;2290;48.674;9.018;2023-12-20T07:05:28;1.00;;;0.90;;
4555;SDS011;2290;48.674;9.018;2023-12-20T07:07:54;1.20;;;0.77;;
4555;SDS011;2290;48.674;9.018;2023-12-20T07:10:19;1.03;;;0.93;;
4555;SDS011;2290;48.674;9.018;2023-12-20T07:12:45;1.10;;;0.80;;
4555;SDS011;2290;48.674;9.018;2023-12-20T07:15:10;1.40;;;0.90;;
4555;SDS011;2290;48.674;9.018;2023-12-20T07:17:36;1.00;;;0.90;;
4555;SDS011;2290;48.674;9.018;2023-12-20T07:20:02;0.90;;;0.80;;
4555;SDS011;2290;48.674;9.018;2023-12-20T07:22:31;1.00;;;0.90;;
4555;SDS011;2290;48.674;9.018;2023-12-20T07:24:58;1.00;;;0.77;;
4555;SDS011;2290;48.674;9.018;2023-12-20T07:27:24;1.23;;;0.80;;
4555;SDS011;2290;48.674;9.018;2023-12-20T07:29:52;0.80;;;0.70;;
4555;SDS011;2290;48.674;9.018;2023-12-20T07:32:18;1.10;;;0.83;;
4555;SDS011;2290;48.674;9.018;2023-12-20T07:34:44;0.80;;;0.80;;
4555;SDS011;2290;48.674;9.018;2023-12-20T07:37:09;1.33;;;0.90;;
4555;SDS011;2290;48.674;9.018;2023-12-20T07:39:39;0.90;;;0.70;;
4555;SDS011;2290;48.674;9.018;2023-12-20T07:42:06;2.23;;;0.90;;
4555;SDS011;2290;48.674;9.018;2023-12-20T07:44:32;1.00;;;0.90;;
4555;SDS011;2290;48.674;9.018;2023-12-20T07:46:58;1.30;;;1.07;;
4555;SDS011;2290;48.674;9.018;2023-12-20T07:49:24;2.13;;;1.20;;
4555;SDS011;2290;48.674;9.018;2023-12-20T07:51:51;1.30;;;1.20;;
4555;SDS011;2290;48.674;9.018;2023-12-20T07:54:16;1.37;;;1.20;;
4555;SDS011;2290;48.674;9.018;2023-12-20T07:56:43;1.40;;;1.30;;
4555;SDS011;2290;48.674;9.018;2023-12-20T07:59:09;2.40;;;1.60;;
4555;SDS011;2290;48.674;9.018;2023-12-20T08:01:34;3.53;;;1.60;;
4555;SDS011;2290;48.674;9.018;2023-12-20T08:04:01;2.13;;;1.70;;
4555;SDS011;2290;48.674;9.018;2023-12-20T08:06:26;1.40;;;1.30;;
4555;SDS011;2290;48.674;9.018;2023-12-20T08:08:52;4.10;;;1.77;;
4555;SDS011;2290;48.674;9.018;2023-12-20T08:11:17;1.47;;;1.37;;
4555;SDS011;2290;48.674;9.018;2023-12-20T08:13:44;2.53;;;1.83;;
4555;SDS011;2290;48.674;9.018;2023-12-20T08:16:09;1.83;;;1.63;;
4555;SDS011;2290;48.674;9.018;2023-12-20T08:18:38;3.13;;;1.93;;
4555;SDS011;2290;48.674;9.018;2023-12-20T08:21:05;5.27;;;2.47;;
4555;SDS011;2290;48.674;9.018;2023-12-20T08:23:33;2.20;;;1.77;;
4555;SDS011;2290;48.674;9.018;2023-12-20T08:26:03;2.20;;;1.83;;
4555;SDS011;2290;48.674;9.018;2023-12-20T08:28:31;2.17;;;1.80;;
4555;SDS011;2290;48.674;9.018;2023-12-20T08:30:59;2.77;;;1.60;;
4555;SDS011;2290;48.674;9.018;2023-12-20T08:33:24;1.80;;;1.60;;
4555;SDS011;2290;48.674;9.018;2023-12-20T08:35:50;1.73;;;1.50;;
4555;SDS011;2290;48.674;9.018;2023-12-20T08:38:16;1.37;;;1.23;;
4555;SDS011;2290;48.674;9.018;2023-12-20T08:40:42;2.27;;;1.70;;
4555;SDS011;2290;48.674;9.018;2023-12-20T08:43:08;1.97;;;1.60;;
4555;SDS011;2290;48.674;9.018;2023-12-20T08:45:34;3.70;;;1.73;;
4555;SDS011;2290;48.674;9.018;2023-12-20T08:47:59;1.67;;;1.53;;
4555;SDS011;2290;48.674;9.018;2023-12-20T08:50:25;1.97;;;1.40;;
4555;SDS011;2290;48.674;9.018;2023-12-20T08:52:50;3.07;;;1.73;;
4555;SDS011;2290;48.674;9.018;2023-12-20T08:55:16;2.97;;;1.60;;
4555;SDS011;2290;48.674;9.018;2023-12-20T08:57:43;2.73;;;1.30;;
4555;SDS011;2290;48.674;9.018;2023-12-20T09:00:09;1.40;;;1.30;;
4555;SDS011;2290;48.674;9.018;2023-12-20T09:02:36;1.50;;;1.40;;
4555;SDS011;2290;48.674;9.018;2023-12-20T09:05:02;3.53;;;1.57;;
4555;SDS011;2290;48.674;9.018;2023-12-20T09:07:28;2.73;;;1.60;;
4555;SDS011;2290;48.674;9.018;2023-12-20T09:09:57;1.63;;;1.50;;
4555;SDS011;2290;48.674;9.018;2023-12-20T09:12:23;1.37;;;1.23;;
4555;SDS011;2290;48.674;9.018;2023-12-20T09:14:49;2.90;;;1.50;;
4555;SDS011;2290;48.674;9.018;2023-12-20T09:17:16;2.67;;;1.90;;
4555;SDS011;2290;48.674;9.018;2023-12-20T09:19:42;3.30;;;1.30;;
4555;SDS011;2290;48.674;9.018;2023-12-20T09:22:11;1.93;;;1.40;;
4555;SDS011;2290;48.674;9.018;2023-12-20T09:24:37;4.47;;;1.47;;
4555;SDS011;2290;48.674;9.018;2023-12-20T09:27:05;1.60;;;1.43;;
4555;SDS011;2290;48.674;9.018;2023-12-20T09:29:31;3.13;;;1.40;;
4555;SDS011;2290;48.674;9.018;2023-12-20T09:31:57;2.23;;;1.70;;
4555;SDS011;2290;48.674;9.018;2023-12-20T09:34:22;2.23;;;1.80;;
4555;SDS011;2290;48.674;9.018;2023-12-20T09:36:49;2.30;;;1.40;;
4555;SDS011;2290;48.674;9.018;2023-12-20T09:39:14;1.77;;;1.67;;
4555;SDS011;2290;48.674;9.018;2023-12-20T09:41:44;1.37;;;1.17;;
4555;SDS011;2290;48.674;9.018;2023-12-20T09:44:18;2.73;;;1.47;;
4555;SDS011;2290;48.674;9.018;2023-12-20T09:46:44;3.70;;;1.87;;
4555;SDS011;2290;48.674;9.018;2023-12-20T09:49:15;3.30;;;1.43;;
4555;SDS011;2290;48.674;9.018;2023-12-20T09:51:45;3.33;;;1.30;;
4555;SDS011;2290;48.674;9.018;2023-12-20T09:54:13;2.00;;;1.57;;
4555;SDS011;2290;48.674;9.018;2023-12-20T09:56:42;3.63;;;1.37;;
4555;SDS011;2290;48.674;9.018;2023-12-20T09:59:09;2.97;;;1.23;;
4555;SDS011;2290;48.674;9.018;2023-12-20T10:01:36;3.07;;;1.30;;
4555;SDS011;2290;48.674;9.018;2023-12-20T10:04:05;1.60;;;1.40;;
4555;SDS011;2290;48.674;9.018;2023-12-20T10:06:37;1.70;;;1.30;;
4555;SDS011;2290;48.674;9.018;2023-12-20T10:09:07;2.20;;;1.53;;
4555;SDS011;2290;48.674;9.018;2023-12-20T10:11:40;1.57;;;1.20;;
4555;SDS011;2290;48.674;9.018;2023-12-20T10:14:05;2.20;;;1.63;;
4555;SDS011;2290;48.674;9.018;2023-12-20T10:16:32;6.10;;;1.30;;
4555;SDS011;2290;48.674;9.018;2023-12-20T10:18:58;2.57;;;1.60;;
4555;SDS011;2290;48.674;9.018;2023-12-20T10:21:26;1.50;;;1.20;;
4555;SDS011;2290;48.674;9.018;2023-12-20T10:23:54;1.30;;;1.00;;
4555;SDS011;2290;48.674;9.018;2023-12-20T10:26:21;6.03;;;1.70;;
4555;SDS011;2290;48.674;9.018;2023-12-20T10:28:51;2.77;;;1.10;;
4555;SDS011;2290;48.674;9.018;2023-12-20T10:31:27;2.07;;;1.63;;
4555;SDS011;2290;48.674;9.018;2023-12-20T10:33:57;4.40;;;1.40;;
4555;SDS011;2290;48.674;9.018;2023-12-20T10:36:26;2.50;;;1.20;;
4555;SDS011;2290;48.674;9.018;2023-12-20T10:39:04;3.83;;;1.30;;
4555;SDS011;2290;48.674;9.018;2023-12-20T10:41:33;1.73;;;1.20;;
4555;SDS011;2290;48.674;9.018;2023-12-20T10:43:59;1.10;;;1.00;;
4555;SDS011;2290;48.674;9.018;2023-12-20T10:46:33;1.33;;;1.10;;
4555;SDS011;2290;48.674;9.018;2023-12-20T10:48:59;4.07;;;1.70;;
4555;SDS011;2290;48.674;9.018;2023-12-20T10:51:30;3.60;;;1.13;;
4555;SDS011;2290;48.674;9.018;2023-12-20T10:53:56;1.67;;;1.33;;
4555;SDS011;2290;48.674;9.018;2023-12-20T10:56:22;2.53;;;1.60;;
4555;SDS011;2290;48.674;9.018;2023-12-20T10:58:51;3.40;;;1.50;;
4555;SDS011;2290;48.674;9.018;2023-12-20T11:01:18;1.57;;;1.27;;
4555;SDS011;2290;48.674;9.018;2023-12-20T11:03:48;4.60;;;1.30;;
4555;SDS011;2290;48.674;9.018;2023-12-20T11:06:26;2.90;;;1.53;;
4555;SDS011;2290;48.674;9.018;2023-12-20T11:09:18;3.27;;;1.40;;
4555;SDS011;2290;48.674;9.018;2023-12-20T11:14:51;5.30;;;1.20;;
4555;SDS011;2290;48.674;9.018;2023-12-20T11:17:29;8.37;;;1.57;;
4555;SDS011;2290;48.674;9.018;2023-12-20T11:22:25;3.20;;;1.43;;
4555;SDS011;2290;48.674;9.018;2023-12-20T11:24:54;2.97;;;1.60;;
4555;SDS011;2290;48.674;9.018;2023-12-20T11:27:27;1.63;;;1.47;;
4555;SDS011;2290;48.674;9.018;2023-12-20T11:29:53;6.80;;;1.60;;
4555;SDS011;2290;48.674;9.018;2023-12-20T11:34:57;1.50;;;1.27;;
4555;SDS011;2290;48.674;9.018;2023-12-20T11:37:35;1.40;;;1.30;;
4555;SDS011;2290;48.674;9.018;2023-12-20T11:40:02;6.23;;;2.30;;
4555;SDS011;2290;48.674;9.018;2023-12-20T11:42:33;2.60;;;1.30;;
4555;SDS011;2290;48.674;9.018;2023-12-20T11:45:04;1.33;;;1.23;;
4555;SDS011;2290;48.674;9.018;2023-12-20T11:47:31;2.30;;;1.30;;
4555;SDS011;2290;48.674;9.018;2023-12-20T11:49:57;2.23;;;1.13;;
4555;SDS011;2290;48.674;9.018;2023-12-20T11:52:22;3.30;;;1.30;;
4555;SDS011;2290;48.674;9.018;2023-12-20T11:54:48;1.47;;;1.30;;
4555;SDS011;2290;48.674;9.018;2023-12-20T11:57:14;3.80;;;1.77;;
4555;SDS011;2290;48.674;9.018;2023-12-20T11:59:39;4.33;;;1.23;;
4555;SDS011;2290;48.674;9.018;2023-12-20T12:02:05;1.30;;;1.20;;
4555;SDS011;2290;48.674;9.018;2023-12-20T12:04:31;2.73;;;1.53;;
4555;SDS011;2290;48.674;9.018;2023-12-20T12:06:56;1.60;;;1.30;;
4555;SDS011;2290;48.674;9.018;2023-12-20T12:09:22;1.50;;;1.30;;
4555;SDS011;2290;48.674;9.018;2023-12-20T12:11:47;2.73;;;1.63;;
4555;SDS011;2290;48.674;9.018;2023-12-20T12:14:13;2.10;;;1.43;;
4555;SDS011;2290;48.674;9.018;2023-12-20T12:16:41;3.40;;;1.70;;
4555;SDS011;2290;48.674;9.018;2023-12-20T12:19:07;5.23;;;1.67;;
4555;SDS011;2290;48.674;9.018;2023-12-20T12:21:32;6.60;;;1.67;;
4555;SDS011;2290;48.674;9.018;2023-12-20T12:24:07;2.13;;;1.13;;
4555;SDS011;2290;48.674;9.018;2023-12-20T12:26:33;1.50;;;1.23;;
4555;SDS011;2290;48.674;9.018;2023-12-20T12:28:59;4.40;;;1.33;;
4555;SDS011;2290;48.674;9.018;2023-12-20T12:31:26;2.97;;;1.67;;
4555;SDS011;2290;48.674;9.018;2023-12-20T12:33:53;3.97;;;1.27;;
4555;SDS011;2290;48.674;9.018;2023-12-20T12:36:20;1.73;;;1.20;;
4555;SDS011;2290;48.674;9.018;2023-12-20T12:38:46;2.83;;;1.50;;
4555;SDS011;2290;48.674;9.018;2023-12-20T12:41:13;1.93;;;1.30;;
4555;SDS011;2290;48.674;9.018;2023-12-20T12:43:40;1.80;;;1.10;;
4555;SDS011;2290;48.674;9.018;2023-12-20T12:46:07;1.23;;;1.13;;
4555;SDS011;2290;48.674;9.018;2023-12-20T12:48:34;3.23;;;1.20;;
4555;SDS011;2290;48.674;9.018;2023-12-20T12:51:00;2.47;;;1.23;;
4555;SDS011;2290;48.674;9.018;2023-12-20T12:53:25;7.70;;;1.90;;
4555;SDS011;2290;48.674;9.018;2023-12-20T12:55:54;1.97;;;1.70;;
4555;SDS011;2290;48.674;9.018;2023-12-20T12:58:20;2.37;;;1.30;;
4555;SDS011;2290;48.674;9.018;2023-12-20T13:00:47;1.73;;;1.47;;
4555;SDS011;2290;48.674;9.018;2023-12-20T13:03:13;4.67;;;1.20;;
4555;SDS011;2290;48.674;9.018;2023-12-20T13:05:40;2.50;;;1.17;;
4555;SDS011;2290;48.674;9.018;2023-12-20T13:08:07;2.23;;;1.40;;
4555;SDS011;2290;48.674;9.018;2023-12-20T13:10:32;8.53;;;1.30;;
4555;SDS011;2290;48.674;9.018;2023-12-20T13:12:59;3.43;;;1.20;;
4555;SDS011;2290;48.674;9.018;2023-12-20T13:15:26;1.73;;;1.30;;
4555;SDS011;2290;48.674;9.018;2023-12-20T13:17:53;3.10;;;1.20;;
4555;SDS011;2290;48.674;9.018;2023-12-20T13:20:19;2.00;;;1.40;;
4555;SDS011;2290;48.674;9.018;2023-12-20T13:22:46;1.57;;;1.10;;
4555;SDS011;2290;48.674;9.018;2023-12-20T13:25:11;6.37;;;1.30;;
4555;SDS011;2290;48.674;9.018;2023-12-20T13:27:37;1.50;;;1.10;;
4555;SDS011;2290;48.674;9.018;2023-12-20T13:30:03;2.50;;;1.10;;
4555;SDS011;2290;48.674;9.018;2023-12-20T13:32:29;2.50;;;1.20;;
4555;SDS011;2290;48.674;9.018;2023-12-20T13:34:56;1.50;;;1.23;;
4555;SDS011;2290;48.674;9.018;2023-12-20T13:37:22;2.40;;;1.23;;
4555;SDS011;2290;48.674;9.018;2023-12-20T13:39:49;1.67;;;1.10;;
4555;SDS011;2290;48.674;9.018;2023-12-20T13:42:15;1.60;;;1.03;;
4555;SDS011;2290;48.674;9.018;2023-12-20T13:44:40;2.40;;;1.40;;
4555;SDS011;2290;48.674;9.018;2023-12-20T13:47:06;3.07;;;1.57;;
4555;SDS011;2290;48.674;9.018;2023-12-20T13:49:32;7.80;;;1.30;;
4555;SDS011;2290;48.674;9.018;2023-12-20T13:51:57;2.80;;;1.20;;
4555;SDS011;2290;48.674;9.018;2023-12-20T13:54:24;1.40;;;1.10;;
4555;SDS011;2290;48.674;9.018;2023-12-20T13:56:51;1.40;;;1.30;;
4555;SDS011;2290;48.674;9.018;2023-12-20T13:59:17;1.30;;;1.00;;
4555;SDS011;2290;48.674;9.018;2023-12-20T14:01:43;1.30;;;1.10;;
4555;SDS011;2290;48.674;9.018;2023-12-20T14:04:08;2.23;;;1.17;;
4555;SDS011;2290;48.674;9.018;2023-12-20T14:06:34;1.17;;;1.07;;
4555;SDS011;2290;48.674;9.018;2023-12-20T14:09:00;5.83;;;1.40;;
4555;SDS011;2290;48.674;9.018;2023-12-20T14:11:25;2.67;;;0.93;;
4555;SDS011;2290;48.674;9.018;2023-12-20T14:13:52;2.83;;;1.20;;
4555;SDS011;2290;48.674;9.018;2023-12-20T14:16:23;1.53;;;1.00;;
4555;SDS011;2290;48.674;9.018;2023-12-20T14:18:50;1.77;;;1.10;;
4555;SDS011;2290;48.674;9.018;2023-12-20T14:21:22;2.50;;;1.20;;
4555;SDS011;2290;48.674;9.018;2023-12-20T14:23:48;1.23;;;1.13;;
4555;SDS011;2290;48.674;9.018;2023-12-20T14:26:14;1.73;;;1.10;;
4555;SDS011;2290;48.674;9.018;2023-12-20T14:28:41;1.93;;;1.10;;
4555;SDS011;2290;48.674;9.018;2023-12-20T14:31:07;2.70;;;1.10;;
4555;SDS011;2290;48.674;9.018;2023-12-20T14:33:33;1.43;;;1.20;;
4555;SDS011;2290;48.674;9.018;2023-12-20T14:35:59;1.10;;;1.00;;
4555;SDS011;2290;48.674;9.018;2023-12-20T14:38:25;1.60;;;1.00;;
4555;SDS011;2290;48.674;9.018;2023-12-20T14:40:52;2.80;;;1.00;;
4555;SDS011;2290;48.674;9.018;2023-12-20T14:43:20;4.60;;;1.33;;
4555;SDS011;2290;48.674;9.018;2023-12-20T14:45:47;1.63;;;1.13;;
4555;SDS011;2290;48.674;9.018;2023-12-20T14:48:12;1.37;;;1.27;;
4555;SDS011;2290;48.674;9.018;2023-12-20T14:50:39;6.20;;;1.30;;
4555;SDS011;2290;48.674;9.018;2023-12-20T14:53:14;1.40;;;1.10;;
4555;SDS011;2290;48.674;9.018;2023-12-20T14:55:42;3.00;;;1.30;;
4555;SDS011;2290;48.674;9.018;2023-12-20T14:58:07;1.40;;;1.10;;
4555;SDS011;2290;48.674;9.018;2023-12-20T15:00:33;3.57;;;1.97;;
4555;SDS011;2290;48.674;9.018;2023-12-20T15:02:59;1.20;;;1.00;;
4555;SDS011;2290;48.674;9.018;2023-12-20T15:05:25;3.17;;;1.23;;
4555;SDS011;2290;48.674;9.018;2023-12-20T15:07:52;1.77;;;1.17;;
4555;SDS011;2290;48.674;9.018;2023-12-20T15:10:18;3.70;;;1.40;;
4555;SDS011;2290;48.674;9.018;2023-12-20T15:12:44;2.53;;;1.50;;
4555;SDS011;2290;48.674;9.018;2023-12-20T15:15:12;4.03;;;1.40;;
4555;SDS011;2290;48.674;9.018;2023-12-20T15:17:41;1.40;;;1.20;;
4555;SDS011;2290;48.674;9.018;2023-12-20T15:20:07;3.00;;;1.40;;